Time;durP1;ratioP1;P1;durP2;ratioP2;P2;SDS_P1;SDS_P2;PMS_P1;PMS_P2;Temp;Humidity;BMP_temperature;BMP_pressure;BME280_temperature;BME280_humidity;BME280_pressure;Samples;Min_cycle;Max_cycle;Signal;HPM_P1;HPM_P2
2021/01/01 00:04:23;;;;;;;25.03;15.40;;;;;;;1.71;100.00;97115.48;3700876;79;44027;-17
2021/01/01 00:09:29;;;;;;;20.40;12.63;;;;;;;1.72;100.00;97112.35;3700063;78;43664;-17
2021/01/01 00:14:35;;;;;;;16.23;12.13;;;;;;;1.70;100.00;97115.16;3700746;79;43401;-17
2021/01/01 00:19:41;;;;;;;14.23;10.07;;;;;;;1.61;100.00;97119.47;3686580;78;44139;-18
2021/01/01 00:24:47;;;;;;;15.53;10.07;;;;;;;1.60;100.00;97125.75;3731430;78;44073;-17
2021/01/01 00:29:53;;;;;;;13.30;8.40;;;;;;;1.56;100.00;97111.06;3653263;80;44024;-18
2021/01/01 00:35:00;;;;;;;14.17;9.13;;;;;;;1.51;100.00;97118.11;3700714;79;44479;-18
2021/01/01 00:40:09;;;;;;;13.13;8.57;;;;;;;1.51;100.00;97115.95;3711386;78;44611;-17
2021/01/01 00:45:15;;;;;;;13.80;8.90;;;;;;;1.51;100.00;97114.63;3711405;78;43390;-16
2021/01/01 00:50:22;;;;;;;13.77;8.77;;;;;;;1.49;100.00;97109.44;3702907;78;44018;-17
2021/01/01 00:55:27;;;;;;;13.17;8.87;;;;;;;1.47;100.00;97115.37;3716302;78;43305;-16
2021/01/01 01:00:33;;;;;;;16.30;9.13;;;;;;;1.41;100.00;97115.92;3633152;80;44410;-17
2021/01/01 01:05:39;;;;;;;11.97;8.23;;;;;;;1.40;100.00;97118.22;3660486;80;43466;-16
2021/01/01 01:10:46;;;;;;;12.70;8.77;;;;;;;1.40;100.00;97118.22;3698329;79;44084;-17
2021/01/01 01:15:52;;;;;;;15.00;9.40;;;;;;;1.41;100.00;97123.89;3730012;78;43076;-17
2021/01/01 01:20:58;;;;;;;13.20;8.77;;;;;;;1.40;100.00;97118.22;3703144;78;43722;-16
2021/01/01 01:26:03;;;;;;;13.00;7.83;;;;;;;1.38;100.00;97124.16;3730204;78;44013;-16
2021/01/01 01:31:09;;;;;;;14.03;9.03;;;;;;;1.34;100.00;97121.44;3703094;78;43726;-17
2021/01/01 01:36:15;;;;;;;14.67;8.93;;;;;;;1.28;100.00;97128.59;3729129;78;43685;-17
2021/01/01 01:41:21;;;;;;;17.23;10.30;;;;;;;1.22;100.00;97123.34;3656177;80;43726;-17
2021/01/01 01:46:35;;;;;;;14.57;8.97;;;;;;;1.18;100.00;97122.77;3658598;79;44060;-17
2021/01/01 01:51:44;;;;;;;15.17;9.57;;;;;;;1.21;100.00;97127.82;3716629;78;44060;-17
2021/01/01 01:56:52;;;;;;;13.13;8.73;;;;;;;1.21;100.00;97131.80;3719384;78;43471;-18
2021/01/01 02:01:59;;;;;;;14.17;8.90;;;;;;;1.20;100.00;97126.14;3716418;78;43950;-17
2021/01/01 02:07:07;;;;;;;15.83;9.50;;;;;;;1.20;100.00;97130.12;3719168;78;45112;-17
2021/01/01 02:12:16;;;;;;;18.53;10.60;;;;;;;1.15;100.00;97133.64;3718164;78;44081;-17
2021/01/01 02:17:23;;;;;;;14.47;9.43;;;;;;;1.13;100.00;97135.59;3713696;78;43444;-17
2021/01/01 02:22:31;;;;;;;15.70;9.67;;;;;;;1.11;100.00;97130.07;3696948;78;43503;-17
2021/01/01 02:27:38;;;;;;;16.27;10.20;;;;;;;1.13;100.00;97130.78;3709153;78;43674;-19
2021/01/01 02:32:46;;;;;;;15.10;9.50;;;;;;;1.12;100.00;97128.59;3699266;78;43485;-18
2021/01/01 02:37:52;;;;;;;15.10;9.53;;;;;;;1.16;100.00;97136.66;3718193;78;44050;-20
2021/01/01 02:42:59;;;;;;;18.07;9.70;;;;;;;1.13;100.00;97134.76;3717970;78;43729;-20
2021/01/01 02:48:14;;;;;;;15.87;9.80;;;;;;;1.08;100.00;97134.66;3712408;78;44615;-17
2021/01/01 02:53:21;;;;;;;18.10;10.63;;;;;;;1.18;100.00;97140.48;3716137;78;43653;-18
2021/01/01 02:58:27;;;;;;;20.03;11.03;;;;;;;1.19;100.00;97131.56;3661439;80;44179;-18
2021/01/01 03:03:32;;;;;;;17.60;10.23;;;;;;;1.16;100.00;97134.00;3663085;79;43314;-18
2021/01/01 03:08:38;;;;;;;17.87;10.53;;;;;;;1.14;100.00;97136.44;3643536;81;42893;-18
2021/01/01 03:13:45;;;;;;;19.17;11.20;;;;;;;1.06;100.00;97125.99;3721491;78;43362;-18
2021/01/01 03:18:51;;;;;;;19.53;11.00;;;;;;;1.03;100.00;97130.73;3707531;78;44056;-18
2021/01/01 03:23:57;;;;;;;22.13;11.77;;;;;;;1.05;100.00;97128.33;3723652;79;43786;-18
2021/01/01 03:29:03;;;;;;;17.87;10.63;;;;;;;1.08;100.00;97126.70;3705044;79;44032;-18
2021/01/01 03:34:09;;;;;;;18.87;10.73;;;;;;;1.11;100.00;97132.25;3724906;79;44030;-18
2021/01/01 03:39:15;;;;;;;20.13;11.20;;;;;;;1.12;100.00;97127.27;3703388;78;43334;-18
2021/01/01 03:44:20;;;;;;;19.70;10.80;;;;;;;1.17;100.00;97125.57;3727991;78;44459;-18
2021/01/01 03:49:26;;;;;;;22.07;12.00;;;;;;;1.17;100.00;97115.78;3700582;78;43673;-18
2021/01/01 03:54:32;;;;;;;19.93;11.03;;;;;;;1.17;100.00;97115.78;3729411;78;44026;-19
2021/01/01 03:59:37;;;;;;;17.73;9.93;;;;;;;1.15;100.00;97120.88;3698059;77;44078;-18
2021/01/01 04:04:43;;;;;;;19.03;11.00;;;;;;;1.09;100.00;97123.58;3729640;79;44067;-18
2021/01/01 04:09:49;;;;;;;22.20;12.40;;;;;;;1.06;100.00;97121.19;3729002;78;44667;-18
2021/01/01 04:14:55;;;;;;;21.90;11.63;;;;;;;1.00;100.00;97116.44;3718850;79;43420;-18
2021/01/01 04:20:00;;;;;;;22.30;11.90;;;;;;;0.92;100.00;97113.12;3703241;79;44108;-18
2021/01/01 04:25:11;;;;;;;19.13;11.73;;;;;;;0.90;100.00;97121.19;3736886;77;43325;-18
2021/01/01 04:30:19;;;;;;;18.97;11.20;;;;;;;0.94;100.00;97132.39;3728671;79;43400;-19
2021/01/01 04:35:25;;;;;;;19.43;10.23;;;;;;;0.96;100.00;97125.62;3661316;81;43726;-18
2021/01/01 04:40:31;;;;;;;20.30;11.13;;;;;;;0.98;100.00;97128.98;3633694;79;44188;-18
2021/01/01 04:45:37;;;;;;;21.63;11.37;;;;;;;0.94;100.00;97135.52;3659422;79;43307;-18
2021/01/01 04:50:43;;;;;;;19.27;11.67;;;;;;;0.95;100.00;97127.91;3614282;79;44525;-19
2021/01/01 04:55:51;;;;;;;19.33;11.20;;;;;;;0.94;100.00;97132.86;3645786;80;44451;-18
2021/01/01 05:00:56;;;;;;;21.93;11.40;;;;;;;0.94;100.00;97135.05;3615289;81;43698;-17
2021/01/01 05:06:02;;;;;;;19.63;10.83;;;;;;;0.92;100.00;97138.31;3713104;80;43338;-17
2021/01/01 05:11:09;;;;;;;19.70;11.00;;;;;;;0.86;100.00;97131.72;3712979;80;43708;-19
2021/01/01 05:16:19;;;;;;;21.20;11.30;;;;;;;0.86;100.00;97137.50;3713536;78;44042;-17
2021/01/01 05:21:26;;;;;;;21.77;11.53;;;;;;;0.77;100.00;97133.81;3627297;80;43506;-15
2021/01/01 05:26:32;;;;;;;19.53;11.00;;;;;;;0.83;100.00;97145.70;3713190;80;44065;-16
2021/01/01 05:31:41;;;;;;;19.47;11.03;;;;;;;0.87;100.00;97152.44;3680667;80;44611;-16
2021/01/01 05:36:48;;;;;;;20.17;11.57;;;;;;;0.91;100.00;97161.81;3645974;81;44367;-16
2021/01/01 05:41:54;;;;;;;20.37;11.27;;;;;;;0.87;100.00;97165.69;3680238;78;43679;-16
2021/01/01 05:47:03;;;;;;;19.67;10.57;;;;;;;0.82;100.00;97168.73;3712052;78;43673;-16
2021/01/01 05:52:13;;;;;;;18.13;10.40;;;;;;;0.83;100.00;97166.45;3694045;78;44073;-16
2021/01/01 05:57:20;;;;;;;18.27;10.30;;;;;;;0.84;100.00;97169.45;3698214;79;43464;-17
2021/01/01 06:02:28;;;;;;;18.60;10.17;;;;;;;0.87;100.00;97174.50;3674220;80;44145;-16
2021/01/01 06:07:37;;;;;;;19.83;11.57;;;;;;;0.85;100.00;97180.41;3702076;80;43330;-16
2021/01/01 06:12:46;;;;;;;18.30;10.40;;;;;;;0.82;100.00;97187.30;3712187;80;43689;-16
2021/01/01 06:17:54;;;;;;;21.60;10.20;;;;;;;0.82;100.00;97194.42;3691870;78;43416;-16
2021/01/01 06:23:02;;;;;;;19.80;9.87;;;;;;;0.83;100.00;97198.73;3691232;79;43724;-16
2021/01/01 06:28:10;;;;;;;21.57;10.83;;;;;;;0.84;100.00;97199.09;3689092;79;43672;-16
2021/01/01 06:33:15;;;;;;;17.83;9.80;;;;;;;0.87;100.00;97194.39;3694359;80;43468;-16
2021/01/01 06:38:41;;;;;;;21.77;11.67;;;;;;;0.82;100.00;97199.23;3621299;81;43391;-17
2021/01/01 06:43:52;;;;;;;18.40;10.87;;;;;;;0.82;100.00;97209.01;3623535;80;44123;-16
2021/01/01 06:48:58;;;;;;;17.47;10.60;;;;;;;0.85;100.00;97212.23;3738566;77;44039;-17
2021/01/01 06:54:14;;;;;;;21.10;11.67;;;;;;;0.90;100.00;97214.48;3709108;80;43341;-17
2021/01/01 06:59:20;;;;;;;18.30;10.87;;;;;;;0.94;100.00;97221.69;3652280;80;44031;-17
2021/01/01 07:04:26;;;;;;;18.77;10.87;;;;;;;0.94;100.00;97224.34;3767715;78;43366;-17
2021/01/01 07:09:37;;;;;;;18.80;10.63;;;;;;;0.95;100.00;97226.86;3774173;78;44023;-17
2021/01/01 07:14:43;;;;;;;18.47;10.70;;;;;;;0.96;100.00;97233.02;3773372;77;43372;-17
2021/01/01 07:19:49;;;;;;;19.97;10.80;;;;;;;0.97;100.00;97238.67;3739641;78;43486;-17
2021/01/01 07:24:56;;;;;;;17.47;10.37;;;;;;;0.98;100.00;97244.34;3763133;77;43689;-17
2021/01/01 07:30:13;;;;;;;18.57;10.90;;;;;;;1.01;100.00;97246.70;3747541;78;43703;-18
2021/01/01 07:35:19;;;;;;;19.90;10.70;;;;;;;1.01;100.00;97256.84;3752688;77;43419;-17
2021/01/01 07:40:26;;;;;;;18.60;10.60;;;;;;;1.04;100.00;97253.09;3675429;78;43279;-18
2021/01/01 07:45:32;;;;;;;16.50;9.20;;;;;;;1.07;100.00;97262.11;3773768;77;43518;-18
2021/01/01 07:50:39;;;;;;;16.80;10.30;;;;;;;1.13;100.00;97268.21;3773657;77;43971;-17
2021/01/01 07:55:45;;;;;;;12.23;7.90;;;;;;;1.18;100.00;97270.47;3773511;77;44023;-17
2021/01/01 08:01:07;;;;;;;17.00;10.37;;;;;;;1.21;100.00;97275.05;3759764;77;44122;-18
2021/01/01 08:06:21;;;;;;;15.27;8.63;;;;;;;1.29;100.00;97272.22;3747618;77;43178;-18
2021/01/01 08:11:30;;;;;;;16.20;9.43;;;;;;;1.33;100.00;97281.61;3761040;78;27101;-19
2021/01/01 08:16:36;;;;;;;17.90;10.03;;;;;;;1.40;100.00;97283.25;3772280;77;43712;-18
2021/01/01 08:21:45;;;;;;;18.00;10.10;;;;;;;1.44;100.00;97292.61;3736281;77;44026;-18
2021/01/01 08:26:52;;;;;;;16.83;9.70;;;;;;;1.46;100.00;97296.84;3745971;77;43996;-18
2021/01/01 08:32:00;;;;;;;15.87;9.40;;;;;;;1.45;100.00;97306.23;3750747;77;44061;-19
2021/01/01 08:37:19;;;;;;;16.90;9.77;;;;;;;1.42;100.00;97315.31;3772927;78;43424;-18
2021/01/01 08:42:25;;;;;;;18.77;10.50;;;;;;;1.44;100.00;97318.68;3677689;80;43352;-18
2021/01/01 08:47:43;;;;;;;18.67;10.47;;;;;;;1.41;100.00;97320.77;3774331;77;43670;-18
2021/01/01 08:52:50;;;;;;;17.53;10.83;;;;;;;1.42;100.00;97336.55;3714741;78;43697;-18
2021/01/01 08:58:08;;;;;;;17.97;10.43;;;;;;;1.39;100.00;97330.16;3691106;78;44724;-18
2021/01/01 09:03:17;;;;;;;18.10;10.27;;;;;;;1.42;100.00;97333.03;3688942;80;43681;-18
2021/01/01 09:08:25;;;;;;;16.10;9.53;;;;;;;1.38;100.00;97335.97;3700334;80;43225;-18
2021/01/01 09:13:31;;;;;;;15.57;9.30;;;;;;;1.40;100.00;97345.12;3712061;78;43375;-18
2021/01/01 09:18:37;;;;;;;19.47;10.67;;;;;;;1.44;100.00;97344.36;3653458;80;43639;-18
2021/01/01 09:23:44;;;;;;;21.10;12.70;;;;;;;1.47;100.00;97350.25;3617511;81;44780;-18
2021/01/01 09:28:51;;;;;;;21.70;11.97;;;;;;;1.47;100.00;97350.75;3672279;78;44057;-18
2021/01/01 09:34:03;;;;;;;19.13;10.50;;;;;;;1.48;100.00;97358.56;3634823;81;43802;-18
2021/01/01 09:39:12;;;;;;;18.03;10.73;;;;;;;1.44;100.00;97364.27;3676354;80;44051;-18
2021/01/01 09:44:17;;;;;;;22.37;12.50;;;;;;;1.52;100.00;97364.48;3689623;79;43692;-18
2021/01/01 09:49:24;;;;;;;17.43;10.43;;;;;;;1.54;100.00;97361.19;3723538;78;44231;-18
2021/01/01 09:54:30;;;;;;;18.90;11.40;;;;;;;1.55;100.00;97372.16;3773080;77;44102;-18
2021/01/01 09:59:36;;;;;;;16.90;10.70;;;;;;;1.64;100.00;97367.42;3742120;78;43987;-18
2021/01/01 10:04:42;;;;;;;16.17;10.17;;;;;;;1.74;100.00;97364.80;3702825;78;43341;-18
2021/01/01 10:09:48;;;;;;;18.37;10.40;;;;;;;1.82;100.00;97368.95;3699798;80;44146;-19
2021/01/01 10:14:54;;;;;;;18.93;10.57;;;;;;;1.94;100.00;97377.69;3710075;80;42764;-18
2021/01/01 10:20:00;;;;;;;18.37;11.20;;;;;;;2.05;100.00;97382.09;3736779;77;43377;-18
2021/01/01 10:25:08;;;;;;;16.90;10.00;;;;;;;2.11;100.00;97384.20;3708753;78;43682;-18
2021/01/01 10:30:15;;;;;;;15.77;9.37;;;;;;;2.12;100.00;97379.23;3755083;77;43345;-18
2021/01/01 10:35:21;;;;;;;14.80;9.67;;;;;;;2.19;100.00;97390.64;3771685;77;44165;-18
2021/01/01 10:40:27;;;;;;;14.90;9.50;;;;;;;2.30;100.00;97393.20;3731346;78;44038;-18
2021/01/01 10:45:43;;;;;;;15.13;9.37;;;;;;;2.31;100.00;97389.58;3771513;77;44095;-18
2021/01/01 10:50:49;;;;;;;14.13;8.70;;;;;;;2.38;100.00;97376.59;3722400;77;44433;-19
2021/01/01 10:55:54;;;;;;;14.57;8.87;;;;;;;2.48;100.00;97385.42;3701699;79;44066;-19
2021/01/01 11:01:00;;;;;;;14.80;9.77;;;;;;;2.43;100.00;97380.52;3701353;78;43729;-19
2021/01/01 11:06:08;;;;;;;14.07;9.40;;;;;;;2.54;100.00;97376.06;3702481;78;44451;-19
2021/01/01 11:11:16;;;;;;;13.13;8.83;;;;;;;2.58;100.00;97371.69;3633456;80;43490;-18
2021/01/01 12:21:41;;;;;;;9.80;6.27;;;;;;;2.87;100.00;97380.70;3745329;77;43601;-18
2021/01/01 12:26:36;;;;;;;9.83;6.17;;;;;;;2.88;100.00;97385.03;3771668;78;43810;-18
2021/01/01 12:31:43;;;;;;;8.53;5.40;;;;;;;2.83;100.00;97393.91;3768672;77;44376;-18
2021/01/01 12:36:49;;;;;;;8.97;5.93;;;;;;;2.85;100.00;97389.30;3771617;78;43971;-18
2021/01/01 12:41:54;;;;;;;9.13;6.10;;;;;;;2.85;100.00;97394.62;3668716;78;43410;-18
2021/01/01 12:47:02;;;;;;;7.73;5.20;;;;;;;2.91;100.00;97395.37;3774335;77;44007;-18
2021/01/01 12:52:08;;;;;;;8.10;5.53;;;;;;;2.92;100.00;97397.92;3774970;77;43661;-18
2021/01/01 12:57:16;;;;;;;8.73;5.47;;;;;;;2.97;100.00;97398.83;3771979;78;43670;-18
2021/01/01 13:02:22;;;;;;;8.70;5.83;;;;;;;3.05;100.00;97396.81;3747115;77;43670;-18
2021/01/01 13:07:28;;;;;;;9.53;6.63;;;;;;;3.08;100.00;97407.16;3769394;77;44020;-19
2021/01/01 13:12:35;;;;;;;9.00;6.10;;;;;;;3.12;100.00;97410.41;3768717;78;43686;-19
2021/01/01 13:17:41;;;;;;;9.23;6.73;;;;;;;3.02;100.00;97417.87;3766451;77;44071;-18
2021/01/01 13:22:47;;;;;;;10.57;6.83;;;;;;;3.00;100.00;97425.64;3796399;77;43505;-18
2021/01/01 13:27:53;;;;;;;11.40;6.63;;;;;;;3.01;100.00;97426.83;3753415;78;44058;-17
2021/01/01 13:32:59;;;;;;;10.57;7.23;;;;;;;3.01;100.00;97427.33;3739693;78;43338;-17
2021/01/01 13:38:07;;;;;;;9.93;6.63;;;;;;;3.04;100.00;97431.05;3773492;77;43728;-17
2021/01/01 13:43:13;;;;;;;14.20;7.20;;;;;;;3.06;100.00;97436.58;3774077;78;43368;-20
2021/01/01 13:48:20;;;;;;;8.77;6.50;;;;;;;3.11;100.00;97439.33;3759567;77;43272;-18
2021/01/01 13:53:25;;;;;;;9.63;6.20;;;;;;;3.08;100.00;97447.07;3714501;78;43939;-18
2021/01/01 13:58:31;;;;;;;8.70;6.10;;;;;;;3.14;100.00;97449.67;3696430;78;43716;-17
2021/01/01 14:03:38;;;;;;;7.70;5.80;;;;;;;3.15;100.00;97450.02;3686939;80;42976;-17
2021/01/01 14:08:45;;;;;;;11.00;6.40;;;;;;;3.14;100.00;97447.00;3694008;78;43349;-18
2021/01/01 14:13:52;;;;;;;8.83;5.83;;;;;;;3.16;100.00;97447.72;3689124;80;44220;-17
2021/01/01 14:18:57;;;;;;;10.03;6.40;;;;;;;3.12;100.00;97454.31;3705019;78;44261;-18
2021/01/01 14:24:06;;;;;;;9.77;5.97;;;;;;;3.10;100.00;97454.94;3647146;80;43311;-17
2021/01/01 14:29:13;;;;;;;8.53;5.30;;;;;;;3.04;100.00;97458.48;3688004;79;43977;-17
2021/01/01 14:34:18;;;;;;;10.00;6.00;;;;;;;3.03;100.00;97467.45;3695293;78;43094;-18
2021/01/01 14:39:25;;;;;;;8.70;5.87;;;;;;;3.04;100.00;97466.47;3618868;81;44441;-19
2021/01/01 14:44:31;;;;;;;11.07;6.40;;;;;;;3.02;100.00;97474.25;3696195;80;43721;-18
2021/01/01 14:49:37;;;;;;;9.37;6.33;;;;;;;2.98;100.00;97475.48;3713366;78;43729;-18
2021/01/01 14:54:43;;;;;;;10.97;6.83;;;;;;;2.86;100.00;97482.75;3724207;78;43681;-18
2021/01/01 14:59:49;;;;;;;9.27;5.90;;;;;;;2.82;100.00;97481.33;3700276;79;43388;-18
2021/01/01 15:04:55;;;;;;;7.77;5.27;;;;;;;2.74;100.00;97478.02;3728695;78;44022;-18
2021/01/01 15:10:03;;;;;;;6.67;4.97;;;;;;;2.74;100.00;97487.32;3694680;79;44056;-18
2021/01/01 15:15:10;;;;;;;11.50;6.97;;;;;;;2.72;100.00;97488.80;3718176;78;43084;-18
2021/01/01 15:20:17;;;;;;;8.07;5.87;;;;;;;2.43;100.00;97501.47;3729924;78;43360;-19
2021/01/01 15:25:22;;;;;;;11.80;7.27;;;;;;;2.48;100.00;97499.73;3727805;78;44028;-18
2021/01/01 15:30:30;;;;;;;22.10;14.07;;;;;;;2.53;100.00;97500.70;3622660;81;43376;-18
2021/01/01 15:35:36;;;;;;;21.93;13.73;;;;;;;2.44;100.00;97499.67;3656712;80;44055;-18
2021/01/01 15:40:42;;;;;;;19.33;12.20;;;;;;;2.44;100.00;97508.48;3621600;81;44009;-18
2021/01/01 15:45:48;;;;;;;13.07;8.73;;;;;;;2.48;100.00;97503.73;3725194;78;44488;-18
2021/01/01 15:50:54;;;;;;;10.93;7.13;;;;;;;2.46;100.00;97507.86;3684439;79;43469;-18
2021/01/01 15:56:02;;;;;;;11.47;7.40;;;;;;;2.43;100.00;97513.44;3726996;78;44021;-17
2021/01/01 16:01:08;;;;;;;12.43;7.63;;;;;;;2.42;100.00;97514.41;3729353;79;44058;-18
2021/01/01 16:06:13;;;;;;;13.03;8.00;;;;;;;2.40;100.00;97524.36;3729835;78;44148;-18
2021/01/01 16:11:20;;;;;;;12.63;7.97;;;;;;;2.36;100.00;97522.92;3718426;79;43333;-18
2021/01/01 16:16:35;;;;;;;16.87;9.93;;;;;;;2.29;100.00;97535.06;3729455;78;44051;-16
2021/01/01 16:21:45;;;;;;;17.53;10.00;;;;;;;2.30;100.00;97536.25;3681361;79;43707;-18
2021/01/01 16:26:51;;;;;;;13.20;8.90;;;;;;;2.35;100.00;97533.20;3729177;78;44034;-18
2021/01/01 16:32:01;;;;;;;18.67;11.00;;;;;;;2.36;100.00;97537.55;3615457;81;43480;-17
2021/01/01 16:37:08;;;;;;;14.50;9.03;;;;;;;2.38;100.00;97534.73;3662932;80;44977;-17
2021/01/01 16:42:15;;;;;;;17.33;10.80;;;;;;;2.39;100.00;97539.09;3681942;79;44038;-18
2021/01/01 16:47:21;;;;;;;16.63;10.70;;;;;;;2.39;100.00;97550.58;3730197;78;44035;-17
2021/01/01 16:52:27;;;;;;;15.73;10.37;;;;;;;2.37;100.00;97549.86;3729340;78;43348;-18
2021/01/01 16:57:33;;;;;;;20.20;12.23;;;;;;;2.40;100.00;97557.58;3724406;78;43277;-18
2021/01/01 17:02:39;;;;;;;17.87;12.80;;;;;;;2.40;100.00;97561.57;3720373;78;44406;-18
2021/01/01 17:07:45;;;;;;;18.53;12.00;;;;;;;2.41;100.00;97564.55;3722463;78;43245;-18
2021/01/01 17:12:51;;;;;;;16.07;11.27;;;;;;;2.42;100.00;97563.58;3688737;79;44041;-18
2021/01/01 17:17:57;;;;;;;17.00;11.77;;;;;;;2.43;100.00;97567.93;3720180;79;43976;-18
2021/01/01 17:23:03;;;;;;;21.03;12.80;;;;;;;2.41;100.00;97573.03;3691008;79;43620;-18
2021/01/01 17:28:08;;;;;;;22.37;13.13;;;;;;;2.34;100.00;97568.72;3718108;79;43308;-18
2021/01/01 17:33:16;;;;;;;19.67;10.93;;;;;;;2.26;100.00;97572.52;3635966;79;43170;-18
2021/01/01 17:38:22;;;;;;;18.77;11.57;;;;;;;2.18;100.00;97581.14;3649556;80;44097;-18
2021/01/01 17:43:28;;;;;;;19.40;12.10;;;;;;;2.22;100.00;97583.05;3728031;78;43342;-19
2021/01/01 17:48:34;;;;;;;18.40;11.40;;;;;;;2.19;100.00;97580.17;3712549;79;44076;-19
2021/01/01 17:53:40;;;;;;;18.13;10.70;;;;;;;2.24;100.00;97581.94;3729032;78;42863;-19
2021/01/01 17:58:46;;;;;;;19.73;11.07;;;;;;;2.21;100.00;97588.00;3710137;78;43269;-19
2021/01/01 18:03:52;;;;;;;15.67;9.63;;;;;;;2.21;100.00;97581.36;3719468;78;43440;-19
2021/01/01 18:08:57;;;;;;;17.40;10.03;;;;;;;2.30;100.00;97588.55;3715238;79;43277;-17
2021/01/01 18:14:07;;;;;;;17.97;10.97;;;;;;;2.25;100.00;97598.24;3663642;80;44054;-18
2021/01/01 18:19:13;;;;;;;17.00;10.23;;;;;;;2.15;100.00;97599.98;3663588;80;44062;-17
2021/01/01 18:24:20;;;;;;;17.87;10.50;;;;;;;2.11;100.00;97602.56;3730242;78;44082;-18
2021/01/01 18:29:26;;;;;;;17.67;10.27;;;;;;;2.06;100.00;97608.23;3636803;80;43045;-18
2021/01/01 18:34:33;;;;;;;18.93;11.37;;;;;;;1.98;100.00;97614.67;3640135;81;43390;-18
2021/01/01 18:39:45;;;;;;;19.73;11.50;;;;;;;1.95;100.00;97618.44;3580907;81;43350;-18
2021/01/01 18:44:53;;;;;;;20.33;12.37;;;;;;;1.92;100.00;97629.81;3660959;80;44030;-18
2021/01/01 18:50:00;;;;;;;20.60;12.07;;;;;;;1.87;100.00;97631.98;3577554;82;43315;-18
2021/01/01 18:55:12;;;;;;;21.77;11.93;;;;;;;1.83;100.00;97640.70;3593477;81;43299;-18
2021/01/01 19:00:20;;;;;;;20.90;12.63;;;;;;;1.82;100.00;97638.51;3670671;80;43634;-18
2021/01/01 19:05:30;;;;;;;20.33;12.00;;;;;;;1.79;100.00;97645.42;3732561;78;43479;-27
2021/01/01 19:10:37;;;;;;;19.60;11.93;;;;;;;1.80;100.00;97648.44;3782673;77;43364;-18
2021/01/01 19:15:46;;;;;;;21.33;12.27;;;;;;;1.76;100.00;97649.65;3793941;78;43992;-17
2021/01/01 19:20:53;;;;;;;20.60;11.43;;;;;;;1.75;100.00;97661.23;3795708;78;43444;-17
2021/01/01 19:26:02;;;;;;;21.27;11.50;;;;;;;1.73;100.00;97668.97;3794006;78;44795;-18
2021/01/01 19:31:18;;;;;;;18.13;11.13;;;;;;;1.66;100.00;97675.26;3793562;77;44030;-18
2021/01/01 19:36:33;;;;;;;15.37;9.43;;;;;;;1.58;100.00;97685.66;3791592;78;43321;-19
2021/01/01 19:41:42;;;;;;;17.97;10.03;;;;;;;1.34;100.00;97694.11;3639134;79;44179;-18
2021/01/01 19:46:58;;;;;;;15.53;9.50;;;;;;;1.28;100.00;97695.08;3793677;78;44090;-18
2021/01/01 19:52:20;;;;;;;17.73;10.20;;;;;;;1.30;100.00;97698.45;3783483;78;44042;-18
2021/01/01 19:57:43;;;;;;;21.27;10.30;;;;;;;1.34;100.00;97698.09;3781910;77;43272;-18
2021/01/01 20:02:58;;;;;;;18.70;10.23;;;;;;;1.32;100.00;97707.98;3760208;78;43428;-18
2021/01/01 20:08:08;;;;;;;17.23;10.00;;;;;;;1.26;100.00;97714.25;3757923;78;43669;-17
2021/01/01 20:13:17;;;;;;;18.53;11.10;;;;;;;1.18;100.00;97718.82;3751746;77;44055;-18
2021/01/01 20:18:28;;;;;;;18.67;10.67;;;;;;;1.14;100.00;97720.88;3756333;78;44176;-21
2021/01/01 20:23:34;;;;;;;18.70;9.87;;;;;;;1.10;100.00;97731.38;3782390;78;43412;-17
2021/01/01 20:28:42;;;;;;;19.57;11.43;;;;;;;1.11;100.00;97734.40;3672132;80;43235;-18
2021/01/01 20:33:50;;;;;;;20.40;11.47;;;;;;;1.19;100.00;97737.76;3775715;78;44021;-18
2021/01/01 20:39:15;;;;;;;21.07;11.40;;;;;;;1.19;100.00;97741.73;3768645;78;43726;-18
2021/01/01 20:44:54;;;;;;;20.97;11.17;;;;;;;1.16;100.00;97742.00;3782747;77;43022;-17
2021/01/01 20:50:32;;;;;;;20.40;11.07;;;;;;;1.12;100.00;97746.67;3752595;78;43284;-18
2021/01/01 20:55:43;;;;;;;20.23;10.57;;;;;;;1.16;100.00;97752.61;3668876;80;44106;-18
2021/01/01 21:00:49;;;;;;;18.33;10.77;;;;;;;1.17;100.00;97751.16;3771071;78;43714;-18
2021/01/01 21:05:56;;;;;;;20.97;11.10;;;;;;;1.18;100.00;97750.66;3690865;80;43783;-18
2021/01/01 21:11:22;;;;;;;21.40;10.60;;;;;;;1.19;100.00;97755.87;3794210;78;44102;-18
2021/01/01 21:16:32;;;;;;;21.93;11.33;;;;;;;1.20;100.00;97760.67;3784826;77;43682;-18
2021/01/01 21:22:00;;;;;;;20.37;11.40;;;;;;;1.15;100.00;97768.16;3676291;80;43657;-18
2021/01/01 21:27:22;;;;;;;19.57;10.60;;;;;;;1.11;100.00;97771.53;3755023;78;43313;-18
2021/01/01 21:33:14;;;;;;;20.03;11.17;;;;;;;1.07;100.00;97776.70;3763032;78;43327;-18
2021/01/01 21:38:46;;;;;;;20.73;10.77;;;;;;;0.98;100.00;97778.73;3600488;81;44534;-18
2021/01/01 21:44:23;;;;;;;21.83;11.43;;;;;;;0.82;100.00;97775.91;3754073;78;43483;-18
2021/01/01 21:49:42;;;;;;;21.53;11.63;;;;;;;0.76;100.00;97782.52;3771464;77;44070;-18
2021/01/01 21:54:50;;;;;;;22.37;12.10;;;;;;;0.70;100.00;97780.81;3773948;78;43685;-18
2021/01/01 21:59:56;;;;;;;22.27;12.10;;;;;;;0.72;100.00;97784.20;3657578;79;43984;-18
2021/01/01 22:05:07;;;;;;;25.27;13.50;;;;;;;0.71;100.00;97780.69;3667909;80;44375;-18
2021/01/01 22:10:13;;;;;;;21.33;11.13;;;;;;;0.72;100.00;97786.35;3793673;78;42826;-18
2021/01/01 22:15:20;;;;;;;23.33;12.10;;;;;;;0.72;100.00;97786.84;3786759;77;44007;-18
2021/01/01 22:20:26;;;;;;;23.20;12.13;;;;;;;0.69;100.00;97789.26;3731240;77;44058;-18
2021/01/01 22:25:31;;;;;;;24.47;12.90;;;;;;;0.65;100.00;97793.58;3782797;78;43994;-18
2021/01/01 22:30:38;;;;;;;20.30;11.10;;;;;;;0.59;100.00;97791.73;3762801;78;43346;-18
2021/01/01 22:35:44;;;;;;;23.13;11.87;;;;;;;0.53;100.00;97796.64;3687173;80;44100;-18
2021/01/01 22:40:50;;;;;;;21.93;11.67;;;;;;;0.51;100.00;97798.09;3731374;78;43669;-18
2021/01/01 22:45:56;;;;;;;21.70;11.87;;;;;;;0.50;100.00;97799.05;3780569;78;44491;-18
2021/01/01 22:51:03;;;;;;;22.13;11.73;;;;;;;0.51;100.00;97796.77;3746164;78;44601;-18
2021/01/01 22:56:16;;;;;;;23.33;12.73;;;;;;;0.56;100.00;97801.73;3738506;77;43362;-18
2021/01/01 23:01:23;;;;;;;24.03;12.47;;;;;;;0.54;100.00;97803.64;3770171;78;43674;-18
2021/01/01 23:06:32;;;;;;;22.30;12.40;;;;;;;0.55;100.00;97806.17;3786555;78;42647;-18
2021/01/01 23:11:41;;;;;;;25.30;12.67;;;;;;;0.53;100.00;97807.25;3794018;78;43383;-18
2021/01/01 23:16:51;;;;;;;22.03;11.43;;;;;;;0.53;100.00;97808.58;3690050;79;43687;-18
2021/01/01 23:22:01;;;;;;;22.30;11.83;;;;;;;0.53;100.00;97810.73;3741782;78;43379;-18
2021/01/01 23:27:10;;;;;;;26.33;13.17;;;;;;;0.56;100.00;97812.33;3731352;77;44010;-18
2021/01/01 23:33:06;;;;;;;24.40;12.60;;;;;;;0.55;100.00;97812.80;3756107;78;43984;-18
2021/01/01 23:38:53;;;;;;;23.57;12.13;;;;;;;0.58;100.00;97811.25;3761736;78;43330;-18
2021/01/01 23:44:09;;;;;;;26.40;13.70;;;;;;;0.58;100.00;97818.38;3754283;78;44060;-17
2021/01/01 23:49:19;;;;;;;28.00;13.33;;;;;;;0.64;100.00;97821.05;3768231;78;44071;-18
2021/01/01 23:54:26;;;;;;;28.20;14.20;;;;;;;0.68;100.00;97831.77;3778050;78;44033;-18
2021/01/01 23:59:33;;;;;;;27.77;14.50;;;;;;;0.68;100.00;97823.36;3781140;77;43345;-17
